The Burg, Illinois
Current Conditions -  °F | °C
As of 7:15 AM on Tuesday 21 Oct 2014 (Local Time) from KRPJ Reporting Station
Clear Clear  
Wind Chill: 35°   Ceiling: Unl
Heat Index: 39°   Visibility: 10mi
Dew Point: 38°   Wind: 6mph
Humidity: 95%   Direction: 350°N
Pressure: 30.14"   Gusts: NA
Location:  41.7005°N, 89.0835°W
Report Text: KRPJ 211215Z AUTO 35005KT 10SM CLR 04/03 A3014 RMK AO2 T00390032
Loading
Personal Weather Stations






























Interactive Weather Map
Tropical Storm Tracking
New forecast layout! Learn more

10-Day Weather Forecast

Advertisements
Track Severe Weather on mobile